sensor_id;sensor_type;location;lat;lon;timestamp;P1;durP1;ratioP1;P2;durP2;ratioP2
4206;SDS011;2117;47.972;7.830;2023-05-14T03:01:58;6.57;;;3.80;;
4206;SDS011;2117;47.972;7.830;2023-05-14T03:04:23;4.67;;;3.10;;
4206;SDS011;2117;47.972;7.830;2023-05-14T03:06:49;4.33;;;3.50;;
4206;SDS011;2117;47.972;7.830;2023-05-14T03:09:15;5.20;;;4.30;;
4206;SDS011;2117;47.972;7.830;2023-05-14T03:11:40;4.40;;;3.63;;
4206;SDS011;2117;47.972;7.830;2023-05-14T03:14:06;4.10;;;3.33;;
4206;SDS011;2117;47.972;7.830;2023-05-14T03:16:32;4.23;;;3.60;;
4206;SDS011;2117;47.972;7.830;2023-05-14T03:18:57;3.87;;;3.20;;
4206;SDS011;2117;47.972;7.830;2023-05-14T03:21:23;5.00;;;3.53;;
4206;SDS011;2117;47.972;7.830;2023-05-14T03:23:49;4.00;;;3.60;;
4206;SDS011;2117;47.972;7.830;2023-05-14T03:26:16;5.50;;;2.90;;
4206;SDS011;2117;47.972;7.830;2023-05-14T03:28:41;4.70;;;3.90;;
4206;SDS011;2117;47.972;7.830;2023-05-14T03:31:08;4.97;;;3.10;;
4206;SDS011;2117;47.972;7.830;2023-05-14T03:33:33;5.43;;;3.30;;
4206;SDS011;2117;47.972;7.830;2023-05-14T03:35:59;6.03;;;3.70;;
4206;SDS011;2117;47.972;7.830;2023-05-14T03:38:25;5.83;;;3.43;;
4206;SDS011;2117;47.972;7.830;2023-05-14T03:40:50;7.80;;;3.13;;
4206;SDS011;2117;47.972;7.830;2023-05-14T03:43:16;3.90;;;3.33;;
4206;SDS011;2117;47.972;7.830;2023-05-14T03:45:42;6.23;;;3.70;;
4206;SDS011;2117;47.972;7.830;2023-05-14T03:48:08;3.97;;;3.27;;
4206;SDS011;2117;47.972;7.830;2023-05-14T03:50:33;5.20;;;3.67;;
4206;SDS011;2117;47.972;7.830;2023-05-14T03:52:59;5.03;;;3.67;;
4206;SDS011;2117;47.972;7.830;2023-05-14T03:55:25;4.20;;;3.67;;
4206;SDS011;2117;47.972;7.830;2023-05-14T03:57:50;4.37;;;3.57;;
4206;SDS011;2117;47.972;7.830;2023-05-14T04:00:16;3.47;;;3.00;;
4206;SDS011;2117;47.972;7.830;2023-05-14T04:02:42;4.00;;;3.60;;
4206;SDS011;2117;47.972;7.830;2023-05-14T04:05:07;4.20;;;2.90;;
4206;SDS011;2117;47.972;7.830;2023-05-14T04:07:33;4.30;;;3.37;;
4206;SDS011;2117;47.972;7.830;2023-05-14T04:09:59;4.03;;;3.20;;
4206;SDS011;2117;47.972;7.830;2023-05-14T04:12:26;3.87;;;3.47;;
4206;SDS011;2117;47.972;7.830;2023-05-14T04:14:51;5.10;;;4.07;;
4206;SDS011;2117;47.972;7.830;2023-05-14T04:17:17;4.47;;;3.57;;
4206;SDS011;2117;47.972;7.830;2023-05-14T04:19:42;9.10;;;4.00;;
4206;SDS011;2117;47.972;7.830;2023-05-14T04:22:08;5.90;;;4.10;;
4206;SDS011;2117;47.972;7.830;2023-05-14T04:24:34;4.07;;;3.50;;
4206;SDS011;2117;47.972;7.830;2023-05-14T04:26:59;6.33;;;3.87;;
4206;SDS011;2117;47.972;7.830;2023-05-14T04:29:25;4.93;;;4.07;;
4206;SDS011;2117;47.972;7.830;2023-05-14T04:31:50;4.83;;;3.80;;
4206;SDS011;2117;47.972;7.830;2023-05-14T04:34:17;5.47;;;4.37;;
4206;SDS011;2117;47.972;7.830;2023-05-14T04:36:42;5.33;;;4.30;;
4206;SDS011;2117;47.972;7.830;2023-05-14T04:39:08;5.77;;;3.90;;
4206;SDS011;2117;47.972;7.830;2023-05-14T04:41:33;4.70;;;3.73;;
4206;SDS011;2117;47.972;7.830;2023-05-14T04:44:01;5.13;;;4.03;;
4206;SDS011;2117;47.972;7.830;2023-05-14T04:46:27;6.07;;;4.50;;
4206;SDS011;2117;47.972;7.830;2023-05-14T04:48:53;4.83;;;4.23;;
4206;SDS011;2117;47.972;7.830;2023-05-14T04:51:18;4.47;;;3.73;;
4206;SDS011;2117;47.972;7.830;2023-05-14T04:53:44;5.57;;;3.80;;
4206;SDS011;2117;47.972;7.830;2023-05-14T04:56:10;4.47;;;3.90;;
4206;SDS011;2117;47.972;7.830;2023-05-14T04:58:35;5.97;;;5.37;;
4206;SDS011;2117;47.972;7.830;2023-05-14T05:01:02;6.93;;;5.20;;
4206;SDS011;2117;47.972;7.830;2023-05-14T05:03:28;7.83;;;4.57;;
4206;SDS011;2117;47.972;7.830;2023-05-14T05:05:55;7.53;;;5.40;;
4206;SDS011;2117;47.972;7.830;2023-05-14T05:08:20;5.43;;;4.57;;
4206;SDS011;2117;47.972;7.830;2023-05-14T05:10:46;5.43;;;4.30;;
4206;SDS011;2117;47.972;7.830;2023-05-14T05:13:11;8.00;;;5.17;;
4206;SDS011;2117;47.972;7.830;2023-05-14T05:15:37;9.53;;;5.27;;
4206;SDS011;2117;47.972;7.830;2023-05-14T05:18:03;6.20;;;4.60;;
4206;SDS011;2117;47.972;7.830;2023-05-14T05:20:28;5.37;;;4.83;;
4206;SDS011;2117;47.972;7.830;2023-05-14T05:22:54;6.67;;;5.30;;
4206;SDS011;2117;47.972;7.830;2023-05-14T05:25:19;5.37;;;4.87;;
4206;SDS011;2117;47.972;7.830;2023-05-14T05:27:45;6.37;;;5.00;;
4206;SDS011;2117;47.972;7.830;2023-05-14T05:30:11;5.83;;;4.20;;
4206;SDS011;2117;47.972;7.830;2023-05-14T05:32:36;5.70;;;4.63;;
4206;SDS011;2117;47.972;7.830;2023-05-14T05:35:02;7.03;;;4.80;;
4206;SDS011;2117;47.972;7.830;2023-05-14T05:37:28;4.73;;;4.10;;
4206;SDS011;2117;47.972;7.830;2023-05-14T05:39:54;6.40;;;5.03;;
4206;SDS011;2117;47.972;7.830;2023-05-14T05:42:20;6.20;;;5.30;;
4206;SDS011;2117;47.972;7.830;2023-05-14T05:44:46;6.77;;;4.60;;
4206;SDS011;2117;47.972;7.830;2023-05-14T05:47:12;6.07;;;5.10;;
4206;SDS011;2117;47.972;7.830;2023-05-14T05:49:37;6.70;;;5.20;;
4206;SDS011;2117;47.972;7.830;2023-05-14T05:52:03;5.70;;;5.10;;
4206;SDS011;2117;47.972;7.830;2023-05-14T05:54:29;6.10;;;5.10;;
4206;SDS011;2117;47.972;7.830;2023-05-14T05:56:58;6.87;;;6.17;;
4206;SDS011;2117;47.972;7.830;2023-05-14T05:59:23;10.80;;;4.90;;
4206;SDS011;2117;47.972;7.830;2023-05-14T06:01:49;6.00;;;5.17;;
4206;SDS011;2117;47.972;7.830;2023-05-14T06:04:15;6.70;;;6.00;;
4206;SDS011;2117;47.972;7.830;2023-05-14T06:06:40;7.60;;;5.47;;
4206;SDS011;2117;47.972;7.830;2023-05-14T06:09:06;7.17;;;5.80;;
4206;SDS011;2117;47.972;7.830;2023-05-14T06:11:32;6.80;;;6.00;;
4206;SDS011;2117;47.972;7.830;2023-05-14T06:13:58;6.57;;;5.87;;
4206;SDS011;2117;47.972;7.830;2023-05-14T06:16:24;8.63;;;6.70;;
4206;SDS011;2117;47.972;7.830;2023-05-14T06:18:50;6.70;;;6.10;;
4206;SDS011;2117;47.972;7.830;2023-05-14T06:21:19;7.90;;;6.73;;
4206;SDS011;2117;47.972;7.830;2023-05-14T06:23:45;9.63;;;7.43;;
4206;SDS011;2117;47.972;7.830;2023-05-14T06:26:11;9.23;;;7.00;;
4206;SDS011;2117;47.972;7.830;2023-05-14T06:28:36;7.50;;;6.23;;
4206;SDS011;2117;47.972;7.830;2023-05-14T06:31:02;7.73;;;6.93;;
4206;SDS011;2117;47.972;7.830;2023-05-14T06:33:27;8.30;;;6.73;;
4206;SDS011;2117;47.972;7.830;2023-05-14T06:35:59;8.57;;;6.93;;
4206;SDS011;2117;47.972;7.830;2023-05-14T06:38:28;11.70;;;7.63;;
4206;SDS011;2117;47.972;7.830;2023-05-14T06:40:53;7.80;;;7.00;;
4206;SDS011;2117;47.972;7.830;2023-05-14T06:43:19;7.50;;;6.37;;
4206;SDS011;2117;47.972;7.830;2023-05-14T06:45:48;8.20;;;7.07;;
4206;SDS011;2117;47.972;7.830;2023-05-14T06:48:17;8.53;;;7.37;;
4206;SDS011;2117;47.972;7.830;2023-05-14T06:50:44;8.83;;;7.37;;
4206;SDS011;2117;47.972;7.830;2023-05-14T06:53:11;7.43;;;6.50;;
4206;SDS011;2117;47.972;7.830;2023-05-14T06:55:36;8.30;;;7.47;;
4206;SDS011;2117;47.972;7.830;2023-05-14T06:58:02;8.30;;;7.50;;
4206;SDS011;2117;47.972;7.830;2023-05-14T07:00:30;7.77;;;6.93;;
4206;SDS011;2117;47.972;7.830;2023-05-14T07:02:55;8.90;;;7.30;;
4206;SDS011;2117;47.972;7.830;2023-05-14T07:05:21;9.63;;;7.37;;
4206;SDS011;2117;47.972;7.830;2023-05-14T07:07:46;7.83;;;7.03;;
4206;SDS011;2117;47.972;7.830;2023-05-14T07:10:12;8.53;;;7.37;;
4206;SDS011;2117;47.972;7.830;2023-05-14T07:12:37;11.17;;;8.70;;
4206;SDS011;2117;47.972;7.830;2023-05-14T07:15:03;10.40;;;8.97;;
4206;SDS011;2117;47.972;7.830;2023-05-14T07:17:29;10.53;;;7.50;;
4206;SDS011;2117;47.972;7.830;2023-05-14T07:19:55;8.50;;;7.63;;
4206;SDS011;2117;47.972;7.830;2023-05-14T07:22:20;10.60;;;8.10;;
4206;SDS011;2117;47.972;7.830;2023-05-14T07:24:46;8.80;;;7.83;;
4206;SDS011;2117;47.972;7.830;2023-05-14T07:27:13;8.30;;;7.37;;
4206;SDS011;2117;47.972;7.830;2023-05-14T07:29:38;8.97;;;8.07;;
4206;SDS011;2117;47.972;7.830;2023-05-14T07:32:04;9.37;;;8.37;;
4206;SDS011;2117;47.972;7.830;2023-05-14T07:34:30;8.90;;;7.97;;
4206;SDS011;2117;47.972;7.830;2023-05-14T07:36:55;8.83;;;7.90;;
4206;SDS011;2117;47.972;7.830;2023-05-14T07:39:21;10.70;;;7.83;;
4206;SDS011;2117;47.972;7.830;2023-05-14T07:41:46;9.10;;;8.30;;
4206;SDS011;2117;47.972;7.830;2023-05-14T07:44:12;13.77;;;8.47;;
4206;SDS011;2117;47.972;7.830;2023-05-14T07:46:38;9.80;;;8.63;;
4206;SDS011;2117;47.972;7.830;2023-05-14T07:49:03;12.90;;;9.00;;
4206;SDS011;2117;47.972;7.830;2023-05-14T07:51:29;10.73;;;9.20;;
4206;SDS011;2117;47.972;7.830;2023-05-14T07:53:55;10.80;;;8.63;;
4206;SDS011;2117;47.972;7.830;2023-05-14T07:56:21;11.17;;;9.23;;
4206;SDS011;2117;47.972;7.830;2023-05-14T07:58:47;11.63;;;9.50;;
4206;SDS011;2117;47.972;7.830;2023-05-14T08:01:14;9.23;;;8.33;;
4206;SDS011;2117;47.972;7.830;2023-05-14T08:03:40;9.87;;;8.67;;
4206;SDS011;2117;47.972;7.830;2023-05-14T08:06:05;9.30;;;8.23;;
4206;SDS011;2117;47.972;7.830;2023-05-14T08:08:31;8.50;;;7.20;;
4206;SDS011;2117;47.972;7.830;2023-05-14T08:10:56;7.97;;;7.17;;
4206;SDS011;2117;47.972;7.830;2023-05-14T08:13:22;10.53;;;8.97;;
4206;SDS011;2117;47.972;7.830;2023-05-14T08:15:47;7.97;;;7.17;;
4206;SDS011;2117;47.972;7.830;2023-05-14T08:18:13;7.80;;;7.00;;
4206;SDS011;2117;47.972;7.830;2023-05-14T08:20:39;9.23;;;8.33;;
4206;SDS011;2117;47.972;7.830;2023-05-14T08:23:04;9.23;;;7.97;;
4206;SDS011;2117;47.972;7.830;2023-05-14T08:25:31;8.80;;;8.00;;
4206;SDS011;2117;47.972;7.830;2023-05-14T08:27:57;8.87;;;7.10;;
4206;SDS011;2117;47.972;7.830;2023-05-14T08:30:23;8.00;;;7.20;;
4206;SDS011;2117;47.972;7.830;2023-05-14T08:32:49;9.30;;;8.50;;
4206;SDS011;2117;47.972;7.830;2023-05-14T08:35:15;10.63;;;7.60;;
4206;SDS011;2117;47.972;7.830;2023-05-14T08:37:41;13.23;;;9.23;;
4206;SDS011;2117;47.972;7.830;2023-05-14T08:40:07;8.73;;;7.73;;
4206;SDS011;2117;47.972;7.830;2023-05-14T08:42:33;8.43;;;7.63;;
4206;SDS011;2117;47.972;7.830;2023-05-14T08:45:02;10.00;;;8.40;;
4206;SDS011;2117;47.972;7.830;2023-05-14T08:47:32;9.50;;;7.80;;
4206;SDS011;2117;47.972;7.830;2023-05-14T08:50:02;8.70;;;7.80;;
4206;SDS011;2117;47.972;7.830;2023-05-14T08:52:29;9.47;;;8.37;;
4206;SDS011;2117;47.972;7.830;2023-05-14T08:54:56;12.20;;;9.00;;
4206;SDS011;2117;47.972;7.830;2023-05-14T08:57:24;9.43;;;8.13;;
4206;SDS011;2117;47.972;7.830;2023-05-14T08:59:50;9.70;;;8.80;;
4206;SDS011;2117;47.972;7.830;2023-05-14T09:02:19;9.77;;;8.83;;
4206;SDS011;2117;47.972;7.830;2023-05-14T09:04:48;10.60;;;8.33;;
4206;SDS011;2117;47.972;7.830;2023-05-14T09:07:18;9.37;;;8.40;;
4206;SDS011;2117;47.972;7.830;2023-05-14T09:09:43;8.63;;;7.73;;
4206;SDS011;2117;47.972;7.830;2023-05-14T09:12:09;8.97;;;8.03;;
4206;SDS011;2117;47.972;7.830;2023-05-14T09:14:35;9.40;;;8.40;;
4206;SDS011;2117;47.972;7.830;2023-05-14T09:17:01;8.70;;;7.80;;
4206;SDS011;2117;47.972;7.830;2023-05-14T09:19:27;8.70;;;7.57;;
4206;SDS011;2117;47.972;7.830;2023-05-14T09:21:54;8.40;;;7.50;;
4206;SDS011;2117;47.972;7.830;2023-05-14T09:24:23;10.03;;;9.03;;
4206;SDS011;2117;47.972;7.830;2023-05-14T09:26:51;9.23;;;8.33;;
4206;SDS011;2117;47.972;7.830;2023-05-14T09:29:18;10.00;;;9.00;;
4206;SDS011;2117;47.972;7.830;2023-05-14T09:31:44;9.70;;;8.70;;
4206;SDS011;2117;47.972;7.830;2023-05-14T09:34:09;10.20;;;9.20;;
4206;SDS011;2117;47.972;7.830;2023-05-14T09:36:35;8.70;;;7.80;;
4206;SDS011;2117;47.972;7.830;2023-05-14T09:39:03;13.07;;;8.87;;
4206;SDS011;2117;47.972;7.830;2023-05-14T09:41:29;9.60;;;8.60;;
4206;SDS011;2117;47.972;7.830;2023-05-14T09:43:55;11.87;;;9.80;;
4206;SDS011;2117;47.972;7.830;2023-05-14T09:46:21;9.80;;;8.80;;
4206;SDS011;2117;47.972;7.830;2023-05-14T09:48:48;8.83;;;7.93;;
4206;SDS011;2117;47.972;7.830;2023-05-14T09:51:14;9.03;;;7.70;;
4206;SDS011;2117;47.972;7.830;2023-05-14T09:53:42;10.27;;;8.40;;
4206;SDS011;2117;47.972;7.830;2023-05-14T09:56:08;8.10;;;7.30;;
4206;SDS011;2117;47.972;7.830;2023-05-14T09:58:34;11.00;;;9.30;;
4206;SDS011;2117;47.972;7.830;2023-05-14T10:01:00;11.00;;;7.50;;
4206;SDS011;2117;47.972;7.830;2023-05-14T10:03:26;8.47;;;6.97;;
4206;SDS011;2117;47.972;7.830;2023-05-14T10:05:54;8.90;;;8.00;;
4206;SDS011;2117;47.972;7.830;2023-05-14T10:08:43;9.20;;;8.23;;
4206;SDS011;2117;47.972;7.830;2023-05-14T10:11:12;7.93;;;7.13;;
4206;SDS011;2117;47.972;7.830;2023-05-14T10:13:40;8.63;;;7.23;;
4206;SDS011;2117;47.972;7.830;2023-05-14T10:16:11;6.70;;;6.03;;
4206;SDS011;2117;47.972;7.830;2023-05-14T10:18:45;8.20;;;6.17;;
4206;SDS011;2117;47.972;7.830;2023-05-14T10:21:15;6.50;;;5.73;;
4206;SDS011;2117;47.972;7.830;2023-05-14T10:23:45;6.43;;;5.73;;
4206;SDS011;2117;47.972;7.830;2023-05-14T10:26:12;5.53;;;5.03;;
4206;SDS011;2117;47.972;7.830;2023-05-14T10:28:38;5.77;;;5.27;;
4206;SDS011;2117;47.972;7.830;2023-05-14T10:31:04;5.23;;;4.73;;
4206;SDS011;2117;47.972;7.830;2023-05-14T10:33:30;5.73;;;5.20;;
4206;SDS011;2117;47.972;7.830;2023-05-14T10:36:11;6.93;;;5.07;;
4206;SDS011;2117;47.972;7.830;2023-05-14T10:38:37;5.80;;;5.20;;
4206;SDS011;2117;47.972;7.830;2023-05-14T10:41:03;5.50;;;5.00;;
4206;SDS011;2117;47.972;7.830;2023-05-14T10:43:34;6.70;;;6.10;;
4206;SDS011;2117;47.972;7.830;2023-05-14T10:46:01;6.53;;;5.93;;
4206;SDS011;2117;47.972;7.830;2023-05-14T10:48:27;8.10;;;6.97;;
4206;SDS011;2117;47.972;7.830;2023-05-14T10:50:53;6.70;;;6.00;;
4206;SDS011;2117;47.972;7.830;2023-05-14T10:53:25;10.20;;;7.07;;
4206;SDS011;2117;47.972;7.830;2023-05-14T10:56:01;7.03;;;6.30;;
4206;SDS011;2117;47.972;7.830;2023-05-14T10:58:30;6.77;;;6.07;;
4206;SDS011;2117;47.972;7.830;2023-05-14T11:00:59;7.77;;;6.97;;
4206;SDS011;2117;47.972;7.830;2023-05-14T11:03:29;6.40;;;5.80;;
4206;SDS011;2117;47.972;7.830;2023-05-14T11:05:58;6.17;;;5.57;;
4206;SDS011;2117;47.972;7.830;2023-05-14T11:08:27;7.40;;;5.10;;
4206;SDS011;2117;47.972;7.830;2023-05-14T11:10:53;6.27;;;5.60;;
4206;SDS011;2117;47.972;7.830;2023-05-14T11:13:20;5.50;;;5.00;;
4206;SDS011;2117;47.972;7.830;2023-05-14T11:15:45;8.17;;;6.17;;
4206;SDS011;2117;47.972;7.830;2023-05-14T11:18:12;6.83;;;6.20;;
4206;SDS011;2117;47.972;7.830;2023-05-14T11:20:38;6.20;;;5.60;;
4206;SDS011;2117;47.972;7.830;2023-05-14T11:23:04;6.00;;;5.40;;
4206;SDS011;2117;47.972;7.830;2023-05-14T11:25:30;6.50;;;5.87;;
4206;SDS011;2117;47.972;7.830;2023-05-14T11:27:55;6.20;;;5.40;;
4206;SDS011;2117;47.972;7.830;2023-05-14T11:30:22;6.50;;;5.20;;
4206;SDS011;2117;47.972;7.830;2023-05-14T11:32:49;7.10;;;5.27;;
4206;SDS011;2117;47.972;7.830;2023-05-14T11:35:15;6.30;;;5.30;;
4206;SDS011;2117;47.972;7.830;2023-05-14T11:37:42;6.10;;;5.50;;
4206;SDS011;2117;47.972;7.830;2023-05-14T11:40:14;5.17;;;4.67;;
4206;SDS011;2117;47.972;7.830;2023-05-14T11:42:40;5.30;;;4.37;;
4206;SDS011;2117;47.972;7.830;2023-05-14T11:45:06;6.30;;;5.53;;
4206;SDS011;2117;47.972;7.830;2023-05-14T11:47:35;5.70;;;4.93;;
4206;SDS011;2117;47.972;7.830;2023-05-14T11:50:01;5.73;;;4.60;;
4206;SDS011;2117;47.972;7.830;2023-05-14T11:52:27;5.00;;;4.50;;
4206;SDS011;2117;47.972;7.830;2023-05-14T11:54:53;5.07;;;4.57;;
4206;SDS011;2117;47.972;7.830;2023-05-14T11:57:19;6.17;;;5.33;;
4206;SDS011;2117;47.972;7.830;2023-05-14T11:59:47;4.37;;;3.97;;
4206;SDS011;2117;47.972;7.830;2023-05-14T12:02:14;4.90;;;3.90;;
4206;SDS011;2117;47.972;7.830;2023-05-14T12:04:42;5.13;;;4.23;;
4206;SDS011;2117;47.972;7.830;2023-05-14T12:07:09;5.63;;;3.93;;
4206;SDS011;2117;47.972;7.830;2023-05-14T12:09:37;5.60;;;3.93;;
4206;SDS011;2117;47.972;7.830;2023-05-14T12:12:10;5.70;;;4.20;;
4206;SDS011;2117;47.972;7.830;2023-05-14T12:14:37;4.73;;;4.33;;
4206;SDS011;2117;47.972;7.830;2023-05-14T12:17:12;5.80;;;4.50;;
4206;SDS011;2117;47.972;7.830;2023-05-14T12:19:40;5.30;;;4.17;;
4206;SDS011;2117;47.972;7.830;2023-05-14T12:22:07;5.10;;;4.30;;
4206;SDS011;2117;47.972;7.830;2023-05-14T12:24:33;5.17;;;4.50;;
4206;SDS011;2117;47.972;7.830;2023-05-14T12:27:00;4.57;;;3.60;;
4206;SDS011;2117;47.972;7.830;2023-05-14T12:29:26;4.37;;;3.83;;
4206;SDS011;2117;47.972;7.830;2023-05-14T12:31:52;4.37;;;3.97;;
4206;SDS011;2117;47.972;7.830;2023-05-14T12:34:17;5.63;;;4.50;;
4206;SDS011;2117;47.972;7.830;2023-05-14T12:36:43;6.13;;;3.70;;
4206;SDS011;2117;47.972;7.830;2023-05-14T12:39:09;6.90;;;4.33;;
4206;SDS011;2117;47.972;7.830;2023-05-14T12:41:36;4.10;;;3.40;;
4206;SDS011;2117;47.972;7.830;2023-05-14T12:44:02;3.37;;;3.07;;
4206;SDS011;2117;47.972;7.830;2023-05-14T12:46:28;4.93;;;3.20;;
4206;SDS011;2117;47.972;7.830;2023-05-14T12:48:55;4.83;;;3.30;;
4206;SDS011;2117;47.972;7.830;2023-05-14T12:51:21;4.40;;;2.77;;
4206;SDS011;2117;47.972;7.830;2023-05-14T12:53:47;3.50;;;2.83;;
4206;SDS011;2117;47.972;7.830;2023-05-14T12:56:13;3.60;;;2.90;;
4206;SDS011;2117;47.972;7.830;2023-05-14T12:58:38;3.10;;;2.80;;
4206;SDS011;2117;47.972;7.830;2023-05-14T13:01:04;3.20;;;2.77;;
4206;SDS011;2117;47.972;7.830;2023-05-14T13:03:30;4.50;;;3.60;;
4206;SDS011;2117;47.972;7.830;2023-05-14T13:05:56;5.10;;;3.10;;
4206;SDS011;2117;47.972;7.830;2023-05-14T13:08:22;4.77;;;2.87;;
4206;SDS011;2117;47.972;7.830;2023-05-14T13:10:54;9.30;;;2.90;;
4206;SDS011;2117;47.972;7.830;2023-05-14T13:13:20;3.37;;;3.00;;
4206;SDS011;2117;47.972;7.830;2023-05-14T13:15:46;4.30;;;2.77;;
4206;SDS011;2117;47.972;7.830;2023-05-14T13:18:12;3.50;;;2.53;;
4206;SDS011;2117;47.972;7.830;2023-05-14T13:20:38;3.10;;;2.63;;
4206;SDS011;2117;47.972;7.830;2023-05-14T13:23:04;5.67;;;2.30;;
4206;SDS011;2117;47.972;7.830;2023-05-14T13:25:29;4.03;;;2.60;;
4206;SDS011;2117;47.972;7.830;2023-05-14T13:27:55;4.10;;;2.73;;
4206;SDS011;2117;47.972;7.830;2023-05-14T13:30:21;4.60;;;2.37;;
4206;SDS011;2117;47.972;7.830;2023-05-14T13:32:46;3.63;;;3.00;;
4206;SDS011;2117;47.972;7.830;2023-05-14T13:35:12;4.73;;;3.13;;
4206;SDS011;2117;47.972;7.830;2023-05-14T13:37:38;4.20;;;3.30;;
4206;SDS011;2117;47.972;7.830;2023-05-14T13:40:03;4.10;;;3.37;;
4206;SDS011;2117;47.972;7.830;2023-05-14T13:42:33;5.20;;;3.17;;
4206;SDS011;2117;47.972;7.830;2023-05-14T13:44:59;3.50;;;2.83;;
4206;SDS011;2117;47.972;7.830;2023-05-14T13:47:24;6.70;;;2.80;;
4206;SDS011;2117;47.972;7.830;2023-05-14T13:49:51;4.00;;;2.93;;
4206;SDS011;2117;47.972;7.830;2023-05-14T13:52:20;6.23;;;2.73;;
4206;SDS011;2117;47.972;7.830;2023-05-14T13:54:46;3.20;;;2.53;;
4206;SDS011;2117;47.972;7.830;2023-05-14T13:57:12;4.50;;;2.53;;
4206;SDS011;2117;47.972;7.830;2023-05-14T13:59:37;2.70;;;2.23;;
4206;SDS011;2117;47.972;7.830;2023-05-14T14:02:03;2.93;;;2.13;;
4206;SDS011;2117;47.972;7.830;2023-05-14T14:04:29;3.00;;;2.03;;
4206;SDS011;2117;47.972;7.830;2023-05-14T14:06:55;2.40;;;1.90;;
4206;SDS011;2117;47.972;7.830;2023-05-14T14:09:21;4.80;;;1.83;;
4206;SDS011;2117;47.972;7.830;2023-05-14T14:11:47;3.63;;;2.80;;
4206;SDS011;2117;47.972;7.830;2023-05-14T14:14:12;3.30;;;2.50;;
4206;SDS011;2117;47.972;7.830;2023-05-14T14:16:38;2.90;;;2.20;;
4206;SDS011;2117;47.972;7.830;2023-05-14T14:19:04;3.80;;;2.40;;
4206;SDS011;2117;47.972;7.830;2023-05-14T14:21:30;3.40;;;2.37;;
4206;SDS011;2117;47.972;7.830;2023-05-14T14:23:56;3.83;;;2.97;;
4206;SDS011;2117;47.972;7.830;2023-05-14T14:26:22;4.20;;;3.20;;
4206;SDS011;2117;47.972;7.830;2023-05-14T14:28:47;3.57;;;3.20;;
4206;SDS011;2117;47.972;7.830;2023-05-14T14:31:13;3.13;;;2.67;;
4206;SDS011;2117;47.972;7.830;2023-05-14T14:33:39;4.50;;;3.63;;
4206;SDS011;2117;47.972;7.830;2023-05-14T14:36:05;3.90;;;2.60;;
4206;SDS011;2117;47.972;7.830;2023-05-14T14:38:31;3.83;;;2.87;;
4206;SDS011;2117;47.972;7.830;2023-05-14T14:40:57;3.90;;;3.20;;
4206;SDS011;2117;47.972;7.830;2023-05-14T14:43:22;4.80;;;2.73;;
4206;SDS011;2117;47.972;7.830;2023-05-14T14:45:48;3.27;;;2.70;;
4206;SDS011;2117;47.972;7.830;2023-05-14T14:51:09;2.80;;;2.20;;
4206;SDS011;2117;47.972;7.830;2023-05-14T14:53:35;2.77;;;2.33;;
4206;SDS011;2117;47.972;7.830;2023-05-14T14:56:01;3.53;;;2.77;;
4206;SDS011;2117;47.972;7.830;2023-05-14T14:58:27;3.13;;;2.10;;
4206;SDS011;2117;47.972;7.830;2023-05-14T15:00:53;5.03;;;2.57;;
4206;SDS011;2117;47.972;7.830;2023-05-14T15:03:20;3.70;;;2.10;;
4206;SDS011;2117;47.972;7.830;2023-05-14T15:05:47;3.00;;;2.40;;
4206;SDS011;2117;47.972;7.830;2023-05-14T15:08:12;4.27;;;2.70;;
4206;SDS011;2117;47.972;7.830;2023-05-14T15:10:38;2.90;;;2.30;;
4206;SDS011;2117;47.972;7.830;2023-05-14T15:13:05;2.90;;;1.83;;
4206;SDS011;2117;47.972;7.830;2023-05-14T15:15:32;3.40;;;2.70;;
4206;SDS011;2117;47.972;7.830;2023-05-14T15:17:58;2.97;;;2.33;;
4206;SDS011;2117;47.972;7.830;2023-05-14T15:20:24;4.80;;;3.00;;
4206;SDS011;2117;47.972;7.830;2023-05-14T15:22:49;2.70;;;2.47;;
4206;SDS011;2117;47.972;7.830;2023-05-14T15:25:19;4.50;;;3.27;;
4206;SDS011;2117;47.972;7.830;2023-05-14T15:27:46;3.50;;;2.40;;
4206;SDS011;2117;47.972;7.830;2023-05-14T15:30:13;4.83;;;2.70;;
4206;SDS011;2117;47.972;7.830;2023-05-14T15:32:39;5.23;;;2.40;;
4206;SDS011;2117;47.972;7.830;2023-05-14T15:35:05;2.73;;;2.07;;
4206;SDS011;2117;47.972;7.830;2023-05-14T15:37:40;4.23;;;2.83;;
4206;SDS011;2117;47.972;7.830;2023-05-14T15:40:08;4.40;;;2.67;;
4206;SDS011;2117;47.972;7.830;2023-05-14T15:42:37;3.00;;;2.47;;
4206;SDS011;2117;47.972;7.830;2023-05-14T15:45:08;3.23;;;2.40;;
4206;SDS011;2117;47.972;7.830;2023-05-14T15:47:36;3.77;;;2.00;;
4206;SDS011;2117;47.972;7.830;2023-05-14T15:50:02;3.23;;;2.73;;
4206;SDS011;2117;47.972;7.830;2023-05-14T15:52:28;2.80;;;2.37;;
4206;SDS011;2117;47.972;7.830;2023-05-14T15:54:54;3.37;;;2.47;;
4206;SDS011;2117;47.972;7.830;2023-05-14T15:57:21;3.50;;;2.27;;
4206;SDS011;2117;47.972;7.830;2023-05-14T15:59:47;3.27;;;2.57;;
4206;SDS011;2117;47.972;7.830;2023-05-14T16:02:13;3.30;;;2.63;;
4206;SDS011;2117;47.972;7.830;2023-05-14T16:04:39;3.20;;;2.47;;
4206;SDS011;2117;47.972;7.830;2023-05-14T16:07:05;3.20;;;2.60;;
4206;SDS011;2117;47.972;7.830;2023-05-14T16:09:35;3.03;;;2.63;;
4206;SDS011;2117;47.972;7.830;2023-05-14T16:12:01;2.60;;;2.00;;
4206;SDS011;2117;47.972;7.830;2023-05-14T16:14:28;2.40;;;1.80;;
4206;SDS011;2117;47.972;7.830;2023-05-14T16:16:53;2.20;;;1.90;;
4206;SDS011;2117;47.972;7.830;2023-05-14T16:19:20;3.10;;;2.30;;
4206;SDS011;2117;47.972;7.830;2023-05-14T16:21:45;3.77;;;2.57;;
4206;SDS011;2117;47.972;7.830;2023-05-14T16:24:11;3.40;;;2.37;;
4206;SDS011;2117;47.972;7.830;2023-05-14T16:26:37;4.00;;;2.33;;
4206;SDS011;2117;47.972;7.830;2023-05-14T16:29:03;5.80;;;2.50;;
4206;SDS011;2117;47.972;7.830;2023-05-14T16:31:29;4.70;;;2.70;;
4206;SDS011;2117;47.972;7.830;2023-05-14T16:33:55;3.20;;;2.10;;
4206;SDS011;2117;47.972;7.830;2023-05-14T16:36:21;2.37;;;1.90;;
4206;SDS011;2117;47.972;7.830;2023-05-14T16:38:46;2.97;;;2.40;;
4206;SDS011;2117;47.972;7.830;2023-05-14T16:41:12;3.00;;;2.30;;
4206;SDS011;2117;47.972;7.830;2023-05-14T16:43:38;2.73;;;2.23;;
4206;SDS011;2117;47.972;7.830;2023-05-14T16:46:04;2.27;;;1.73;;
4206;SDS011;2117;47.972;7.830;2023-05-14T16:48:30;2.40;;;1.73;;
4206;SDS011;2117;47.972;7.830;2023-05-14T16:50:55;7.20;;;2.50;;
4206;SDS011;2117;47.972;7.830;2023-05-14T16:53:23;2.90;;;2.20;;
4206;SDS011;2117;47.972;7.830;2023-05-14T16:55:49;3.93;;;2.37;;
4206;SDS011;2117;47.972;7.830;2023-05-14T16:58:14;3.40;;;2.60;;
4206;SDS011;2117;47.972;7.830;2023-05-14T17:00:40;3.80;;;1.90;;
4206;SDS011;2117;47.972;7.830;2023-05-14T17:03:05;3.27;;;2.67;;
4206;SDS011;2117;47.972;7.830;2023-05-14T17:05:31;3.50;;;2.20;;
4206;SDS011;2117;47.972;7.830;2023-05-14T17:07:58;3.33;;;2.50;;
4206;SDS011;2117;47.972;7.830;2023-05-14T17:10:24;3.00;;;2.17;;
4206;SDS011;2117;47.972;7.830;2023-05-14T17:12:50;3.10;;;2.50;;
4206;SDS011;2117;47.972;7.830;2023-05-14T17:15:16;3.93;;;2.50;;
4206;SDS011;2117;47.972;7.830;2023-05-14T17:17:42;3.50;;;2.70;;
4206;SDS011;2117;47.972;7.830;2023-05-14T17:20:07;3.23;;;2.37;;
4206;SDS011;2117;47.972;7.830;2023-05-14T17:22:33;3.53;;;2.47;;
4206;SDS011;2117;47.972;7.830;2023-05-14T17:24:59;2.93;;;2.27;;
4206;SDS011;2117;47.972;7.830;2023-05-14T17:27:25;3.37;;;2.60;;
4206;SDS011;2117;47.972;7.830;2023-05-14T17:29:53;2.40;;;1.90;;
4206;SDS011;2117;47.972;7.830;2023-05-14T17:32:18;2.67;;;2.23;;
4206;SDS011;2117;47.972;7.830;2023-05-14T17:34:44;4.30;;;2.60;;
4206;SDS011;2117;47.972;7.830;2023-05-14T17:37:10;4.50;;;2.50;;
4206;SDS011;2117;47.972;7.830;2023-05-14T17:39:36;4.60;;;3.90;;
4206;SDS011;2117;47.972;7.830;2023-05-14T17:42:01;2.10;;;1.90;;
4206;SDS011;2117;47.972;7.830;2023-05-14T17:44:27;3.17;;;2.83;;
4206;SDS011;2117;47.972;7.830;2023-05-14T17:46:53;3.70;;;2.70;;
4206;SDS011;2117;47.972;7.830;2023-05-14T17:49:19;2.90;;;2.30;;
4206;SDS011;2117;47.972;7.830;2023-05-14T17:51:45;3.93;;;2.33;;
4206;SDS011;2117;47.972;7.830;2023-05-14T17:54:11;2.80;;;2.10;;
4206;SDS011;2117;47.972;7.830;2023-05-14T17:56:36;3.20;;;2.10;;
4206;SDS011;2117;47.972;7.830;2023-05-14T17:59:02;7.40;;;2.20;;
4206;SDS011;2117;47.972;7.830;2023-05-14T18:01:27;3.03;;;2.00;;
4206;SDS011;2117;47.972;7.830;2023-05-14T18:03:53;2.90;;;2.30;;
4206;SDS011;2117;47.972;7.830;2023-05-14T18:06:18;3.77;;;1.90;;
4206;SDS011;2117;47.972;7.830;2023-05-14T18:08:44;2.40;;;1.77;;
4206;SDS011;2117;47.972;7.830;2023-05-14T18:11:10;4.20;;;2.17;;
4206;SDS011;2117;47.972;7.830;2023-05-14T18:13:35;5.40;;;2.30;;